sensor_id;sensor_type;location;lat;lon;timestamp;pressure;altitude;pressure_sealevel;temperature;humidity
5126;BME280;63008;53.112;8.896;2023-07-28T00:01:01;100097.47;;;18.16;100.00
5126;BME280;63008;53.112;8.896;2023-07-28T00:03:02;100097.88;;;18.14;100.00
5126;BME280;63008;53.112;8.896;2023-07-28T00:05:03;100093.09;;;18.15;100.00
5126;BME280;63008;53.112;8.896;2023-07-28T00:07:05;100091.91;;;18.12;100.00
5126;BME280;63008;53.112;8.896;2023-07-28T00:09:06;100082.78;;;18.12;100.00
5126;BME280;63008;53.112;8.896;2023-07-28T00:11:11;100094.69;;;18.12;100.00
5126;BME280;63008;53.112;8.896;2023-07-28T00:13:12;100090.31;;;18.11;100.00
5126;BME280;63008;53.112;8.896;2023-07-28T00:15:13;100093.09;;;18.11;100.00
5126;BME280;63008;53.112;8.896;2023-07-28T00:17:14;100086.75;;;18.11;100.00
5126;BME280;63008;53.112;8.896;2023-07-28T00:19:15;100082.41;;;18.10;100.00
5126;BME280;63008;53.112;8.896;2023-07-28T00:21:16;100090.34;;;18.08;100.00
5126;BME280;63008;53.112;8.896;2023-07-28T00:23:17;100091.91;;;18.12;100.00
5126;BME280;63008;53.112;8.896;2023-07-28T00:25:18;100091.91;;;18.12;100.00
5126;BME280;63008;53.112;8.896;2023-07-28T00:27:19;100091.13;;;18.08;100.00
5126;BME280;63008;53.112;8.896;2023-07-28T00:29:20;100096.28;;;18.10;100.00
5126;BME280;63008;53.112;8.896;2023-07-28T00:31:21;100100.66;;;18.07;100.00
5126;BME280;63008;53.112;8.896;2023-07-28T00:33:22;100096.69;;;18.08;100.00
5126;BME280;63008;53.112;8.896;2023-07-28T00:35:23;100096.28;;;18.06;100.00
5126;BME280;63008;53.112;8.896;2023-07-28T00:37:24;100090.75;;;18.06;100.00
5126;BME280;63008;53.112;8.896;2023-07-28T00:39:25;100093.50;;;18.03;100.00
5126;BME280;63008;53.112;8.896;2023-07-28T00:41:26;100088.75;;;18.03;100.00
5126;BME280;63008;53.112;8.896;2023-07-28T00:43:27;100089.56;;;18.00;100.00
5126;BME280;63008;53.112;8.896;2023-07-28T00:45:29;100092.75;;;18.06;100.00
5126;BME280;63008;53.112;8.896;2023-07-28T00:47:31;100090.72;;;18.03;100.00
5126;BME280;63008;53.112;8.896;2023-07-28T00:49:33;100087.56;;;18.01;100.00
5126;BME280;63008;53.112;8.896;2023-07-28T00:51:35;100088.38;;;17.98;100.00
5126;BME280;63008;53.112;8.896;2023-07-28T00:53:36;100083.59;;;18.02;100.00
5126;BME280;63008;53.112;8.896;2023-07-28T00:55:38;100091.16;;;18.01;100.00
5126;BME280;63008;53.112;8.896;2023-07-28T00:57:39;100088.34;;;18.05;100.00
5126;BME280;63008;53.112;8.896;2023-07-28T00:59:40;100085.97;;;18.03;100.00
5126;BME280;63008;53.112;8.896;2023-07-28T01:01:41;100093.94;;;18.01;100.00
5126;BME280;63008;53.112;8.896;2023-07-28T01:03:42;100097.09;;;18.00;100.00
5126;BME280;63008;53.112;8.896;2023-07-28T01:08:42;100092.72;;;17.99;100.00
5126;BME280;63008;53.112;8.896;2023-07-28T01:10:46;100094.69;;;18.02;100.00
5126;BME280;63008;53.112;8.896;2023-07-28T01:12:47;100097.91;;;17.97;100.00
5126;BME280;63008;53.112;8.896;2023-07-28T01:14:48;100094.72;;;17.95;100.00
5126;BME280;63008;53.112;8.896;2023-07-28T01:16:49;100093.91;;;17.94;100.00
5126;BME280;63008;53.112;8.896;2023-07-28T01:18:50;100093.91;;;17.94;100.00
5126;BME280;63008;53.112;8.896;2023-07-28T01:20:52;100091.94;;;17.95;100.00
5126;BME280;63008;53.112;8.896;2023-07-28T01:23:16;100091.94;;;17.95;100.00
5126;BME280;63008;53.112;8.896;2023-07-28T01:25:35;100093.16;;;17.94;100.00
5126;BME280;63008;53.112;8.896;2023-07-28T01:27:37;100089.16;;;17.91;100.00
5126;BME280;63008;53.112;8.896;2023-07-28T01:29:39;100097.91;;;17.90;100.00
5126;BME280;63008;53.112;8.896;2023-07-28T01:31:40;100092.34;;;17.93;100.00
5126;BME280;63008;53.112;8.896;2023-07-28T01:33:41;100086.38;;;17.91;100.00
5126;BME280;63008;53.112;8.896;2023-07-28T01:35:42;100091.56;;;17.89;100.00
5126;BME280;63008;53.112;8.896;2023-07-28T01:37:43;100097.09;;;17.89;100.00
5126;BME280;63008;53.112;8.896;2023-07-28T01:39:44;100089.97;;;17.88;100.00
5126;BME280;63008;53.112;8.896;2023-07-28T01:41:45;100086.41;;;17.88;100.00
5126;BME280;63008;53.112;8.896;2023-07-28T01:43:46;100087.19;;;17.88;100.00
5126;BME280;63008;53.112;8.896;2023-07-28T01:45:47;100085.22;;;17.89;100.00
5126;BME280;63008;53.112;8.896;2023-07-28T01:47:48;100092.38;;;17.90;100.00
5126;BME280;63008;53.112;8.896;2023-07-28T01:49:49;100095.13;;;17.90;100.00
5126;BME280;63008;53.112;8.896;2023-07-28T01:51:50;100093.13;;;17.90;100.00
5126;BME280;63008;53.112;8.896;2023-07-28T01:53:51;100095.13;;;17.90;100.00
5126;BME280;63008;53.112;8.896;2023-07-28T01:55:52;100097.09;;;17.89;100.00
5126;BME280;63008;53.112;8.896;2023-07-28T01:57:58;100094.72;;;17.95;100.00
5126;BME280;63008;53.112;8.896;2023-07-28T02:00:00;100097.13;;;17.93;100.00
5126;BME280;63008;53.112;8.896;2023-07-28T02:02:01;100100.66;;;17.93;100.00
5126;BME280;63008;53.112;8.896;2023-07-28T02:04:02;100099.09;;;17.92;100.00
5126;BME280;63008;53.112;8.896;2023-07-28T02:06:03;100096.72;;;17.91;100.00
5126;BME280;63008;53.112;8.896;2023-07-28T02:08:04;100103.84;;;17.92;100.00
5126;BME280;63008;53.112;8.896;2023-07-28T02:10:05;100101.84;;;17.92;100.00
5126;BME280;63008;53.112;8.896;2023-07-28T02:12:06;100109.41;;;17.92;100.00
5126;BME280;63008;53.112;8.896;2023-07-28T02:14:07;100099.09;;;17.92;100.00
5126;BME280;63008;53.112;8.896;2023-07-28T02:16:08;100095.13;;;17.93;100.00
5126;BME280;63008;53.112;8.896;2023-07-28T02:18:09;100111.38;;;17.91;100.00
5126;BME280;63008;53.112;8.896;2023-07-28T02:20:10;100108.59;;;17.91;100.00
5126;BME280;63008;53.112;8.896;2023-07-28T02:22:13;100108.63;;;17.98;100.00
5126;BME280;63008;53.112;8.896;2023-07-28T02:24:14;100116.13;;;17.94;100.00
5126;BME280;63008;53.112;8.896;2023-07-28T02:26:15;100112.59;;;17.97;100.00
5126;BME280;63008;53.112;8.896;2023-07-28T02:28:16;100111.00;;;17.93;100.00
5126;BME280;63008;53.112;8.896;2023-07-28T02:30:17;100117.72;;;17.95;100.00
5126;BME280;63008;53.112;8.896;2023-07-28T02:32:18;100120.09;;;17.93;100.00
5126;BME280;63008;53.112;8.896;2023-07-28T02:34:19;100123.69;;;17.94;100.00
5126;BME280;63008;53.112;8.896;2023-07-28T02:36:20;100121.69;;;17.98;100.00
5126;BME280;63008;53.112;8.896;2023-07-28T02:38:21;100127.66;;;18.03;100.00
5126;BME280;63008;53.112;8.896;2023-07-28T02:40:22;100118.91;;;18.01;100.00
5126;BME280;63008;53.112;8.896;2023-07-28T02:42:23;100122.88;;;17.97;100.00
5126;BME280;63008;53.112;8.896;2023-07-28T02:44:25;100118.91;;;17.98;100.00
5126;BME280;63008;53.112;8.896;2023-07-28T02:46:26;100126.06;;;17.99;100.00
5126;BME280;63008;53.112;8.896;2023-07-28T02:48:27;100126.47;;;17.97;100.00
5126;BME280;63008;53.112;8.896;2023-07-28T02:50:28;100126.06;;;17.99;100.00
5126;BME280;63008;53.112;8.896;2023-07-28T02:52:29;100129.22;;;18.08;100.00
5126;BME280;63008;53.112;8.896;2023-07-28T02:54:30;100140.34;;;18.04;100.00
5126;BME280;63008;53.112;8.896;2023-07-28T02:56:31;100133.19;;;18.00;100.00
5126;BME280;63008;53.112;8.896;2023-07-28T02:58:35;100131.63;;;18.02;100.00
5126;BME280;63008;53.112;8.896;2023-07-28T03:00:43;100122.88;;;18.00;100.00
5126;BME280;63008;53.112;8.896;2023-07-28T03:02:44;100134.38;;;17.99;100.00
5126;BME280;63008;53.112;8.896;2023-07-28T03:04:45;100129.22;;;18.04;100.00
5126;BME280;63008;53.112;8.896;2023-07-28T03:06:46;100133.97;;;18.07;100.00
5126;BME280;63008;53.112;8.896;2023-07-28T03:08:48;100119.31;;;18.07;100.00
5126;BME280;63008;53.112;8.896;2023-07-28T03:10:49;100132.78;;;18.05;100.00
5126;BME280;63008;53.112;8.896;2023-07-28T03:12:50;100132.00;;;18.04;100.00
5126;BME280;63008;53.112;8.896;2023-07-28T03:14:51;100130.41;;;18.00;100.00
5126;BME280;63008;53.112;8.896;2023-07-28T03:16:52;100132.00;;;18.01;100.00
5126;BME280;63008;53.112;8.896;2023-07-28T03:18:53;100132.00;;;18.04;100.00
5126;BME280;63008;53.112;8.896;2023-07-28T03:20:54;100130.41;;;18.03;100.00
5126;BME280;63008;53.112;8.896;2023-07-28T03:22:55;100130.00;;;18.05;100.00
5126;BME280;63008;53.112;8.896;2023-07-28T03:24:56;100138.34;;;18.08;100.00
5126;BME280;63008;53.112;8.896;2023-07-28T03:26:57;100138.34;;;18.05;100.00
5126;BME280;63008;53.112;8.896;2023-07-28T03:28:58;100147.09;;;18.03;100.00
5126;BME280;63008;53.112;8.896;2023-07-28T03:30:59;100139.94;;;18.06;100.00
5126;BME280;63008;53.112;8.896;2023-07-28T03:33:00;100147.47;;;18.02;100.00
5126;BME280;63008;53.112;8.896;2023-07-28T03:35:01;100144.31;;;18.00;100.00
5126;BME280;63008;53.112;8.896;2023-07-28T03:37:02;100149.09;;;17.99;100.00
5126;BME280;63008;53.112;8.896;2023-07-28T03:39:04;100146.31;;;17.99;100.00
5126;BME280;63008;53.112;8.896;2023-07-28T03:41:04;100147.47;;;18.02;100.00
5126;BME280;63008;53.112;8.896;2023-07-28T03:43:07;100147.06;;;18.00;100.00
5126;BME280;63008;53.112;8.896;2023-07-28T03:45:09;100142.72;;;17.99;100.00
5126;BME280;63008;53.112;8.896;2023-07-28T03:47:10;100148.69;;;17.97;100.00
5126;BME280;63008;53.112;8.896;2023-07-28T03:49:11;100149.47;;;18.01;100.00
5126;BME280;63008;53.112;8.896;2023-07-28T03:51:12;100151.44;;;18.01;100.00
5126;BME280;63008;53.112;8.896;2023-07-28T03:53:13;100149.84;;;18.00;100.00
5126;BME280;63008;53.112;8.896;2023-07-28T03:55:14;100152.25;;;18.01;100.00
5126;BME280;63008;53.112;8.896;2023-07-28T03:57:15;100156.22;;;17.97;100.00
5126;BME280;63008;53.112;8.896;2023-07-28T03:59:16;100147.50;;;17.98;100.00
5126;BME280;63008;53.112;8.896;2023-07-28T04:01:17;100159.38;;;18.02;100.00
5126;BME280;63008;53.112;8.896;2023-07-28T04:03:19;100155.81;;;17.98;100.00
5126;BME280;63008;53.112;8.896;2023-07-28T04:05:20;100157.41;;;17.96;100.00
5126;BME280;63008;53.112;8.896;2023-07-28T04:07:21;100160.56;;;17.98;100.00
5126;BME280;63008;53.112;8.896;2023-07-28T04:09:22;100158.97;;;17.93;100.00
5126;BME280;63008;53.112;8.896;2023-07-28T04:11:23;100165.72;;;17.92;100.00
5126;BME280;63008;53.112;8.896;2023-07-28T04:13:24;100163.75;;;17.89;100.00
5126;BME280;63008;53.112;8.896;2023-07-28T04:15:25;100164.94;;;17.92;100.00
5126;BME280;63008;53.112;8.896;2023-07-28T04:17:27;100170.91;;;17.94;100.00
5126;BME280;63008;53.112;8.896;2023-07-28T04:19:28;100169.69;;;17.95;100.00
5126;BME280;63008;53.112;8.896;2023-07-28T04:21:30;100173.28;;;17.92;100.00
5126;BME280;63008;53.112;8.896;2023-07-28T04:23:31;100171.28;;;17.92;100.00
5126;BME280;63008;53.112;8.896;2023-07-28T04:25:32;100171.28;;;17.96;100.00
5126;BME280;63008;53.112;8.896;2023-07-28T04:27:33;100165.72;;;17.96;100.00
5126;BME280;63008;53.112;8.896;2023-07-28T04:29:34;100168.13;;;17.94;100.00
5126;BME280;63008;53.112;8.896;2023-07-28T04:31:35;100171.28;;;17.92;100.00
5126;BME280;63008;53.112;8.896;2023-07-28T04:33:36;100167.72;;;17.92;100.00
5126;BME280;63008;53.112;8.896;2023-07-28T04:35:37;100179.22;;;17.94;100.00
5126;BME280;63008;53.112;8.896;2023-07-28T04:37:38;100175.66;;;17.97;100.00
5126;BME280;63008;53.112;8.896;2023-07-28T04:39:39;100173.25;;;17.95;100.00
5126;BME280;63008;53.112;8.896;2023-07-28T04:41:40;100178.81;;;17.99;100.00
5126;BME280;63008;53.112;8.896;2023-07-28T04:43:41;100186.38;;;17.98;100.00
5126;BME280;63008;53.112;8.896;2023-07-28T04:45:44;100194.69;;;17.95;100.00
5126;BME280;63008;53.112;8.896;2023-07-28T04:47:45;100198.66;;;17.97;100.00
5126;BME280;63008;53.112;8.896;2023-07-28T04:49:46;100200.66;;;17.97;100.00
5126;BME280;63008;53.112;8.896;2023-07-28T04:51:47;100207.38;;;17.96;100.00
5126;BME280;63008;53.112;8.896;2023-07-28T04:53:48;100199.44;;;17.98;100.00
5126;BME280;63008;53.112;8.896;2023-07-28T04:55:49;100199.03;;;17.92;100.00
5126;BME280;63008;53.112;8.896;2023-07-28T04:57:50;100202.63;;;17.89;100.00
5126;BME280;63008;53.112;8.896;2023-07-28T04:59:51;100200.66;;;17.90;100.00
5126;BME280;63008;53.112;8.896;2023-07-28T05:01:52;100196.28;;;17.89;100.00
5126;BME280;63008;53.112;8.896;2023-07-28T05:03:53;100201.84;;;17.96;100.00
5126;BME280;63008;53.112;8.896;2023-07-28T05:05:54;100212.94;;;17.99;100.00
5126;BME280;63008;53.112;8.896;2023-07-28T05:07:55;100207.38;;;17.96;100.00
5126;BME280;63008;53.112;8.896;2023-07-28T05:09:55;100210.94;;;17.89;100.00
5126;BME280;63008;53.112;8.896;2023-07-28T05:11:56;100213.72;;;17.89;100.00
5126;BME280;63008;53.112;8.896;2023-07-28T05:13:57;100208.56;;;17.91;100.00
5126;BME280;63008;53.112;8.896;2023-07-28T05:15:58;100206.59;;;17.92;100.00
5126;BME280;63008;53.112;8.896;2023-07-28T05:18:00;100204.63;;;17.99;100.00
5126;BME280;63008;53.112;8.896;2023-07-28T05:20:01;100211.34;;;17.95;100.00
5126;BME280;63008;53.112;8.896;2023-07-28T05:22:03;100210.56;;;17.91;100.00
5126;BME280;63008;53.112;8.896;2023-07-28T05:24:04;100220.09;;;17.90;100.00
5126;BME280;63008;53.112;8.896;2023-07-28T05:26:05;100216.50;;;17.93;100.00
5126;BME280;63008;53.112;8.896;2023-07-28T05:28:06;100216.91;;;17.91;100.00
5126;BME280;63008;53.112;8.896;2023-07-28T05:30:07;100214.13;;;17.95;100.00
5126;BME280;63008;53.112;8.896;2023-07-28T05:32:08;100223.25;;;17.95;100.00
5126;BME280;63008;53.112;8.896;2023-07-28T05:34:09;100220.88;;;17.94;100.00
5126;BME280;63008;53.112;8.896;2023-07-28T05:36:12;100214.13;;;17.95;100.00
5126;BME280;63008;53.112;8.896;2023-07-28T05:38:13;100216.91;;;17.98;100.00
5126;BME280;63008;53.112;8.896;2023-07-28T05:40:14;100215.72;;;17.99;100.00
5126;BME280;63008;53.112;8.896;2023-07-28T05:42:15;100220.88;;;17.97;100.00
5126;BME280;63008;53.112;8.896;2023-07-28T05:44:16;100218.09;;;17.94;100.00
5126;BME280;63008;53.112;8.896;2023-07-28T05:46:18;100221.28;;;17.89;100.00
5126;BME280;63008;53.112;8.896;2023-07-28T05:48:19;100231.59;;;17.92;100.00
5126;BME280;63008;53.112;8.896;2023-07-28T05:50:20;100224.84;;;17.93;100.00
5126;BME280;63008;53.112;8.896;2023-07-28T05:52:21;100230.38;;;17.89;100.00
5126;BME280;63008;53.112;8.896;2023-07-28T05:54:23;100226.00;;;17.95;100.00
5126;BME280;63008;53.112;8.896;2023-07-28T05:56:24;100233.94;;;17.93;100.00
5126;BME280;63008;53.112;8.896;2023-07-28T05:58:25;100235.56;;;17.98;100.00
5126;BME280;63008;53.112;8.896;2023-07-28T06:00:26;100235.94;;;18.00;100.00
5126;BME280;63008;53.112;8.896;2023-07-28T06:02:27;100237.94;;;17.99;100.00
5126;BME280;63008;53.112;8.896;2023-07-28T06:04:28;100238.72;;;18.00;100.00
5126;BME280;63008;53.112;8.896;2023-07-28T06:06:29;100236.75;;;18.04;100.00
5126;BME280;63008;53.112;8.896;2023-07-28T06:08:29;100243.88;;;18.08;100.00
5126;BME280;63008;53.112;8.896;2023-07-28T06:10:30;100242.31;;;18.14;100.00
5126;BME280;63008;53.112;8.896;2023-07-28T06:12:31;100243.88;;;18.19;100.00
5126;BME280;63008;53.112;8.896;2023-07-28T06:14:32;100245.06;;;18.18;100.00
5126;BME280;63008;53.112;8.896;2023-07-28T06:16:33;100239.50;;;18.04;100.00
5126;BME280;63008;53.112;8.896;2023-07-28T06:18:34;100239.91;;;17.99;100.00
5126;BME280;63008;53.112;8.896;2023-07-28T06:20:35;100249.03;;;17.96;100.00
5126;BME280;63008;53.112;8.896;2023-07-28T06:22:36;100247.47;;;17.98;100.00
5126;BME280;63008;53.112;8.896;2023-07-28T06:24:37;100246.25;;;17.96;100.00
5126;BME280;63008;53.112;8.896;2023-07-28T06:26:38;100246.66;;;17.98;100.00
5126;BME280;63008;53.112;8.896;2023-07-28T06:28:39;100251.03;;;18.02;100.00
5126;BME280;63008;53.112;8.896;2023-07-28T06:30:40;100257.38;;;18.03;100.00
5126;BME280;63008;53.112;8.896;2023-07-28T06:32:41;100253.41;;;18.00;100.00
5126;BME280;63008;53.112;8.896;2023-07-28T06:34:42;100256.56;;;17.99;100.00
5126;BME280;63008;53.112;8.896;2023-07-28T06:36:43;100257.78;;;18.01;100.00
5126;BME280;63008;53.112;8.896;2023-07-28T06:38:44;100260.16;;;18.03;100.00
5126;BME280;63008;53.112;8.896;2023-07-28T06:40:48;100263.72;;;18.03;100.00
5126;BME280;63008;53.112;8.896;2023-07-28T06:42:50;100258.94;;;18.04;100.00
5126;BME280;63008;53.112;8.896;2023-07-28T06:44:52;100262.16;;;18.06;100.00
5126;BME280;63008;53.112;8.896;2023-07-28T06:46:53;100261.75;;;18.11;100.00
5126;BME280;63008;53.112;8.896;2023-07-28T06:48:54;100261.34;;;18.16;100.00
5126;BME280;63008;53.112;8.896;2023-07-28T06:50:55;100262.94;;;18.20;100.00
5126;BME280;63008;53.112;8.896;2023-07-28T06:52:56;100266.50;;;18.24;100.00
5126;BME280;63008;53.112;8.896;2023-07-28T06:54:57;100271.69;;;18.26;100.00
5126;BME280;63008;53.112;8.896;2023-07-28T06:56:58;100276.88;;;18.31;100.00
5126;BME280;63008;53.112;8.896;2023-07-28T06:58:59;100277.25;;;18.47;100.00
5126;BME280;63008;53.112;8.896;2023-07-28T07:01:00;100275.66;;;18.52;100.00
5126;BME280;63008;53.112;8.896;2023-07-28T07:03:01;100276.06;;;18.61;100.00
5126;BME280;63008;53.112;8.896;2023-07-28T07:05:02;100283.19;;;18.69;100.00
5126;BME280;63008;53.112;8.896;2023-07-28T07:07:03;100282.00;;;18.70;100.00
5126;BME280;63008;53.112;8.896;2023-07-28T07:09:04;100286.78;;;18.66;100.00
5126;BME280;63008;53.112;8.896;2023-07-28T07:11:06;100295.91;;;18.67;100.00
5126;BME280;63008;53.112;8.896;2023-07-28T07:13:07;100287.97;;;18.69;100.00
5126;BME280;63008;53.112;8.896;2023-07-28T07:15:09;100295.09;;;18.73;100.00
5126;BME280;63008;53.112;8.896;2023-07-28T07:17:12;100288.34;;;18.74;100.00
5126;BME280;63008;53.112;8.896;2023-07-28T07:19:13;100292.72;;;18.75;100.00
5126;BME280;63008;53.112;8.896;2023-07-28T07:21:16;100292.31;;;18.73;100.00
5126;BME280;63008;53.112;8.896;2023-07-28T07:23:17;100285.16;;;18.76;100.00
5126;BME280;63008;53.112;8.896;2023-07-28T07:25:18;100299.47;;;18.85;100.00
5126;BME280;63008;53.112;8.896;2023-07-28T07:27:19;100284.34;;;18.93;100.00
5126;BME280;63008;53.112;8.896;2023-07-28T07:29:20;100290.28;;;18.98;100.00
5126;BME280;63008;53.112;8.896;2023-07-28T07:31:21;100291.88;;;18.96;100.00
5126;BME280;63008;53.112;8.896;2023-07-28T07:33:23;100302.19;;;18.99;100.00
5126;BME280;63008;53.112;8.896;2023-07-28T07:35:25;100307.38;;;19.00;100.00
5126;BME280;63008;53.112;8.896;2023-07-28T07:37:26;100308.22;;;18.87;100.00
5126;BME280;63008;53.112;8.896;2023-07-28T07:39:27;100312.19;;;18.86;100.00
5126;BME280;63008;53.112;8.896;2023-07-28T07:41:28;100309.41;;;18.82;100.00
5126;BME280;63008;53.112;8.896;2023-07-28T07:43:30;100309.78;;;18.84;100.00
5126;BME280;63008;53.112;8.896;2023-07-28T07:45:31;100311.38;;;18.82;100.00
5126;BME280;63008;53.112;8.896;2023-07-28T07:47:32;100312.94;;;18.83;100.00
5126;BME280;63008;53.112;8.896;2023-07-28T07:49:33;100322.50;;;18.85;100.00
5126;BME280;63008;53.112;8.896;2023-07-28T07:51:34;100314.16;;;18.85;100.00
5126;BME280;63008;53.112;8.896;2023-07-28T07:53:35;100328.06;;;18.85;100.00
5126;BME280;63008;53.112;8.896;2023-07-28T07:55:39;100327.66;;;18.87;100.00
5126;BME280;63008;53.112;8.896;2023-07-28T07:57:40;100324.88;;;18.83;100.00
5126;BME280;63008;53.112;8.896;2023-07-28T07:59:41;100332.03;;;18.84;100.00
5126;BME280;63008;53.112;8.896;2023-07-28T08:01:42;100334.00;;;18.91;100.00
5126;BME280;63008;53.112;8.896;2023-07-28T08:03:43;100334.00;;;18.87;100.00
5126;BME280;63008;53.112;8.896;2023-07-28T08:05:44;100341.16;;;18.92;100.00
5126;BME280;63008;53.112;8.896;2023-07-28T08:07:45;100348.31;;;18.93;100.00
5126;BME280;63008;53.112;8.896;2023-07-28T08:09:48;100342.38;;;18.94;100.00
5126;BME280;63008;53.112;8.896;2023-07-28T08:11:49;100342.72;;;19.00;100.00
5126;BME280;63008;53.112;8.896;2023-07-28T08:13:50;100351.88;;;19.11;100.00
5126;BME280;63008;53.112;8.896;2023-07-28T08:15:51;100349.09;;;19.18;100.00
5126;BME280;63008;53.112;8.896;2023-07-28T08:17:52;100346.31;;;19.25;100.00
5126;BME280;63008;53.112;8.896;2023-07-28T08:19:53;100352.66;;;19.29;100.00
5126;BME280;63008;53.112;8.896;2023-07-28T08:21:57;100361.38;;;19.38;100.00
5126;BME280;63008;53.112;8.896;2023-07-28T08:23:57;100361.34;;;19.45;100.00
5126;BME280;63008;53.112;8.896;2023-07-28T08:25:58;100360.09;;;19.53;100.00
5126;BME280;63008;53.112;8.896;2023-07-28T08:28:00;100368.47;;;19.53;100.00
5126;BME280;63008;53.112;8.896;2023-07-28T08:30:01;100363.28;;;19.58;100.00
5126;BME280;63008;53.112;8.896;2023-07-28T08:32:02;100369.66;;;19.59;100.00
5126;BME280;63008;53.112;8.896;2023-07-28T08:34:03;100382.34;;;19.63;100.00
5126;BME280;63008;53.112;8.896;2023-07-28T08:36:04;100373.59;;;19.65;100.00
5126;BME280;63008;53.112;8.896;2023-07-28T08:38:05;100383.16;;;19.64;100.00
5126;BME280;63008;53.112;8.896;2023-07-28T08:40:06;100375.19;;;19.69;100.00
5126;BME280;63008;53.112;8.896;2023-07-28T08:42:07;100381.19;;;19.61;100.00
5126;BME280;63008;53.112;8.896;2023-07-28T08:44:09;100377.63;;;19.53;100.00
5126;BME280;63008;53.112;8.896;2023-07-28T08:46:10;100379.22;;;19.51;100.00
5126;BME280;63008;53.112;8.896;2023-07-28T08:48:10;100375.22;;;19.55;100.00
5126;BME280;63008;53.112;8.896;2023-07-28T08:50:11;100372.88;;;19.50;100.00
5126;BME280;63008;53.112;8.896;2023-07-28T08:52:16;100379.59;;;19.53;100.00
5126;BME280;63008;53.112;8.896;2023-07-28T08:54:17;100374.84;;;19.50;100.00
5126;BME280;63008;53.112;8.896;2023-07-28T08:56:20;100388.00;;;19.42;100.00
5126;BME280;63008;53.112;8.896;2023-07-28T08:58:22;100389.97;;;19.45;100.00
5126;BME280;63008;53.112;8.896;2023-07-28T09:00:24;100391.97;;;19.48;100.00
5126;BME280;63008;53.112;8.896;2023-07-28T09:02:27;100394.72;;;19.52;100.00
5126;BME280;63008;53.112;8.896;2023-07-28T09:04:28;100393.94;;;19.44;100.00
5126;BME280;63008;53.112;8.896;2023-07-28T09:06:29;100397.16;;;19.43;100.00
5126;BME280;63008;53.112;8.896;2023-07-28T09:08:32;100399.16;;;19.35;100.00
5126;BME280;63008;53.112;8.896;2023-07-28T09:10:42;100398.34;;;19.35;100.00
5126;BME280;63008;53.112;8.896;2023-07-28T09:12:50;100399.16;;;19.39;100.00
5126;BME280;63008;53.112;8.896;2023-07-28T09:14:56;100404.69;;;19.46;100.00
5126;BME280;63008;53.112;8.896;2023-07-28T09:17:10;100400.31;;;19.48;100.00
5126;BME280;63008;53.112;8.896;2023-07-28T09:19:12;100403.91;;;19.42;100.00
5126;BME280;63008;53.112;8.896;2023-07-28T09:21:20;100403.53;;;19.36;100.00
5126;BME280;63008;53.112;8.896;2023-07-28T09:23:28;100404.72;;;19.39;100.00
5126;BME280;63008;53.112;8.896;2023-07-28T09:25:31;100409.03;;;19.64;100.00
5126;BME280;63008;53.112;8.896;2023-07-28T09:27:32;100411.25;;;19.97;100.00
5126;BME280;63008;53.112;8.896;2023-07-28T09:29:34;100406.78;;;20.28;100.00
5126;BME280;63008;53.112;8.896;2023-07-28T09:31:35;100400.59;;;20.60;100.00
5126;BME280;63008;53.112;8.896;2023-07-28T09:33:37;100404.81;;;20.75;100.00
5126;BME280;63008;53.112;8.896;2023-07-28T09:35:50;100409.66;;;20.71;100.00
5126;BME280;63008;53.112;8.896;2023-07-28T09:37:51;100404.06;;;20.75;100.00
5126;BME280;63008;53.112;8.896;2023-07-28T09:39:55;100411.66;;;20.71;100.00
5126;BME280;63008;53.112;8.896;2023-07-28T09:41:56;100412.44;;;20.71;100.00
5126;BME280;63008;53.112;8.896;2023-07-28T09:44:00;100411.22;;;20.72;100.00
5126;BME280;63008;53.112;8.896;2023-07-28T09:46:04;100413.56;;;20.77;100.00
5126;BME280;63008;53.112;8.896;2023-07-28T09:48:07;100419.13;;;20.88;100.00
5126;BME280;63008;53.112;8.896;2023-07-28T09:50:10;100418.19;;;21.05;100.00
5126;BME280;63008;53.112;8.896;2023-07-28T09:52:13;100422.47;;;21.16;100.00
5126;BME280;63008;53.112;8.896;2023-07-28T09:54:23;100421.41;;;21.00;100.00
5126;BME280;63008;53.112;8.896;2023-07-28T09:56:28;100421.88;;;20.91;100.00
5126;BME280;63008;53.112;8.896;2023-07-28T09:58:33;100432.56;;;21.00;100.00
5126;BME280;63008;53.112;8.896;2023-07-28T10:00:37;100428.47;;;21.11;100.00
5126;BME280;63008;53.112;8.896;2023-07-28T10:02:39;100428.94;;;21.03;100.00
5126;BME280;63008;53.112;8.896;2023-07-28T10:04:41;100421.38;;;21.03;100.00
5126;BME280;63008;53.112;8.896;2023-07-28T10:06:42;100427.88;;;21.34;100.00
5126;BME280;63008;53.112;8.896;2023-07-28T10:08:43;100422.06;;;21.55;100.00
5126;BME280;63008;53.112;8.896;2023-07-28T10:10:46;100425.59;;;21.62;100.00
5126;BME280;63008;53.112;8.896;2023-07-28T10:12:51;100424.59;;;21.42;100.00
5126;BME280;63008;53.112;8.896;2023-07-28T10:15:01;100433.56;;;21.23;100.00
5126;BME280;63008;53.112;8.896;2023-07-28T10:17:04;100431.81;;;21.40;100.00
5126;BME280;63008;53.112;8.896;2023-07-28T10:19:06;100435.91;;;22.32;100.00
5126;BME280;63008;53.112;8.896;2023-07-28T10:21:15;100444.88;;;22.50;100.00
5126;BME280;63008;53.112;8.896;2023-07-28T10:23:20;100433.81;;;22.39;100.00
5126;BME280;63008;53.112;8.896;2023-07-28T10:25:25;100430.41;;;22.25;100.00
5126;BME280;63008;53.112;8.896;2023-07-28T10:27:38;100425.19;;;21.97;100.00
5126;BME280;63008;53.112;8.896;2023-07-28T10:29:39;100444.31;;;21.65;100.00
5126;BME280;63008;53.112;8.896;2023-07-28T10:31:49;100441.34;;;21.42;100.00
5126;BME280;63008;53.112;8.896;2023-07-28T10:33:50;100452.69;;;20.74;100.00
5126;BME280;63008;53.112;8.896;2023-07-28T10:35:51;100445.88;;;20.10;100.00
5126;BME280;63008;53.112;8.896;2023-07-28T10:37:55;100445.97;;;19.72;100.00
5126;BME280;63008;53.112;8.896;2023-07-28T10:42:23;100450.03;;;19.46;100.00